createdAt,value
2018-01-14T00:00:06.407Z,985.17
2018-01-14T00:01:05.595Z,985.17
2018-01-14T00:02:10.610Z,985.06
2018-01-14T00:03:05.725Z,984.95
2018-01-14T00:04:05.444Z,985.06
2018-01-14T00:05:05.046Z,984.95
2018-01-14T00:06:05.059Z,984.94
2018-01-14T00:07:05.660Z,984.83
2018-01-14T00:08:05.773Z,984.95
2018-01-14T00:09:05.556Z,984.94
2018-01-14T00:10:05.032Z,984.78
2018-01-14T00:11:05.759Z,984.70
2018-01-14T00:12:05.832Z,984.59
2018-01-14T00:13:05.912Z,984.73
2018-01-14T00:14:05.114Z,984.70
2018-01-14T00:15:11.046Z,984.81
2018-01-14T00:16:05.962Z,984.70
2018-01-14T00:17:05.783Z,984.73
2018-01-14T00:18:05.018Z,984.76
2018-01-14T00:19:05.542Z,984.81
2018-01-14T00:20:05.771Z,984.71
2018-01-14T00:21:05.327Z,984.81
2018-01-14T00:22:05.369Z,984.81
2018-01-14T00:23:05.508Z,984.73
2018-01-14T00:24:05.531Z,984.81
2018-01-14T00:25:05.532Z,984.86
2018-01-14T00:26:05.219Z,984.76
2018-01-14T00:27:05.466Z,984.71
2018-01-14T00:28:05.311Z,984.84
2018-01-14T00:29:05.130Z,984.86
2018-01-14T00:30:04.935Z,984.81
2018-01-14T00:31:06.059Z,984.84
2018-01-14T00:32:05.220Z,984.86
2018-01-14T00:33:05.051Z,984.84
2018-01-14T00:34:05.963Z,984.95
2018-01-14T00:35:05.189Z,984.81
2018-01-14T00:36:05.336Z,984.84
2018-01-14T00:37:05.292Z,984.84
2018-01-14T00:38:05.222Z,984.84
2018-01-14T00:39:05.732Z,984.81
2018-01-14T00:40:05.402Z,984.95
2018-01-14T00:41:05.429Z,984.84
2018-01-14T00:42:05.021Z,984.84
2018-01-14T00:43:05.699Z,984.95
2018-01-14T00:44:05.337Z,984.81
2018-01-14T00:45:05.348Z,984.86
2018-01-14T00:46:05.489Z,984.86
2018-01-14T00:47:05.646Z,984.76
2018-01-14T00:48:05.827Z,984.92
2018-01-14T00:49:05.633Z,984.97
2018-01-14T00:50:04.987Z,984.86
2018-01-14T00:51:05.638Z,984.81
2018-01-14T00:52:05.706Z,984.95
2018-01-14T00:53:05.242Z,984.81
2018-01-14T00:54:05.240Z,985.00
2018-01-14T00:55:05.931Z,984.92
2018-01-14T00:56:05.472Z,984.74
2018-01-14T00:57:05.414Z,984.81
2018-01-14T00:58:05.023Z,985.03
2018-01-14T00:59:05.482Z,984.95
2018-01-14T01:00:05.179Z,984.84
2018-01-14T01:01:06.152Z,984.78
2018-01-14T01:02:05.772Z,984.84
2018-01-14T01:03:05.339Z,984.92
2018-01-14T01:04:05.016Z,984.76
2018-01-14T01:05:05.695Z,984.98
2018-01-14T01:06:05.237Z,984.87
2018-01-14T01:07:05.814Z,984.84
2018-01-14T01:08:05.644Z,984.89
2018-01-14T01:09:05.310Z,984.84
2018-01-14T01:10:05.358Z,984.89
2018-01-14T01:11:05.186Z,984.78
2018-01-14T01:12:05.217Z,984.74
2018-01-14T01:13:05.328Z,984.68
2018-01-14T01:14:05.930Z,984.84
2018-01-14T01:15:04.945Z,984.81
2018-01-14T01:16:04.963Z,984.71
2018-01-14T01:17:05.943Z,984.65
2018-01-14T01:18:05.694Z,984.65
2018-01-14T01:19:05.662Z,984.68
2018-01-14T01:20:05.234Z,984.52
2018-01-14T01:21:05.759Z,984.87
2018-01-14T01:22:05.389Z,984.63
2018-01-14T01:23:05.132Z,984.57
2018-01-14T01:24:05.216Z,984.68
2018-01-14T01:25:05.263Z,984.76
2018-01-14T01:26:05.354Z,984.60
2018-01-14T01:27:05.016Z,984.57
2018-01-14T01:28:05.789Z,984.54
2018-01-14T01:29:05.200Z,984.63
2018-01-14T01:30:06.009Z,984.60
2018-01-14T01:31:05.536Z,984.68
2018-01-14T01:32:05.459Z,984.57
2018-01-14T01:33:05.076Z,984.60
2018-01-14T01:34:05.116Z,984.38
2018-01-14T01:35:05.050Z,984.40
2018-01-14T01:36:05.976Z,984.65
2018-01-14T01:37:05.620Z,984.43
2018-01-14T01:38:05.398Z,984.60
2018-01-14T01:39:10.135Z,984.60
2018-01-14T01:40:05.255Z,984.46
2018-01-14T01:41:05.749Z,984.51
2018-01-14T01:42:05.503Z,984.57
2018-01-14T01:43:10.562Z,984.57
2018-01-14T01:44:05.842Z,984.60
2018-01-14T01:45:05.696Z,984.68
2018-01-14T01:46:05.509Z,984.60
2018-01-14T01:47:05.155Z,984.60
2018-01-14T01:48:04.960Z,984.74
2018-01-14T01:49:05.713Z,984.68
2018-01-14T01:50:05.562Z,984.60
2018-01-14T01:51:05.560Z,984.87
2018-01-14T01:52:04.992Z,984.78
2018-01-14T01:53:05.681Z,984.62
2018-01-14T01:54:05.884Z,984.71
2018-01-14T01:55:10.888Z,984.74
2018-01-14T01:56:05.017Z,984.74
2018-01-14T01:57:05.596Z,984.74
2018-01-14T01:58:05.697Z,984.51
2018-01-14T01:59:05.933Z,984.60
2018-01-14T02:00:05.067Z,984.62
2018-01-14T02:01:04.944Z,984.57
2018-01-14T02:02:05.684Z,984.46
2018-01-14T02:03:05.836Z,984.71
2018-01-14T02:04:05.397Z,984.57
2018-01-14T02:05:05.109Z,984.57
2018-01-14T02:06:05.015Z,984.51
2018-01-14T02:07:05.485Z,984.57
2018-01-14T02:08:05.335Z,984.51
2018-01-14T02:09:05.980Z,984.62
2018-01-14T02:10:05.678Z,984.51
2018-01-14T02:11:05.016Z,984.51
2018-01-14T02:12:05.744Z,984.46
2018-01-14T02:13:04.962Z,984.40
2018-01-14T02:14:05.851Z,984.40
2018-01-14T02:15:05.400Z,984.60
2018-01-14T02:16:05.333Z,984.51
2018-01-14T02:17:05.336Z,984.48
2018-01-14T02:18:10.399Z,984.48
2018-01-14T02:19:05.565Z,984.46
2018-01-14T02:20:05.328Z,984.46
2018-01-14T02:21:05.309Z,984.46
2018-01-14T02:22:05.074Z,984.46
2018-01-14T02:23:05.772Z,984.48
2018-01-14T02:24:05.936Z,984.40
2018-01-14T02:25:05.276Z,984.48
2018-01-14T02:26:05.777Z,984.37
2018-01-14T02:27:05.606Z,984.37
2018-01-14T02:28:05.639Z,984.35
2018-01-14T02:29:05.627Z,984.51
2018-01-14T02:30:05.017Z,984.54
2018-01-14T02:31:05.015Z,984.48
2018-01-14T02:32:05.056Z,984.54
2018-01-14T02:33:06.124Z,984.48
2018-01-14T02:34:05.789Z,984.46
2018-01-14T02:35:05.472Z,984.76
2018-01-14T02:36:05.237Z,984.65
2018-01-14T02:37:05.465Z,984.46
2018-01-14T02:38:05.204Z,984.43
2018-01-14T02:39:06.020Z,984.57
2018-01-14T02:40:05.879Z,984.54
2018-01-14T02:41:05.486Z,984.46
2018-01-14T02:42:05.624Z,984.65
2018-01-14T02:43:05.435Z,984.54
2018-01-14T02:44:05.389Z,984.46
2018-01-14T02:45:05.510Z,984.65
2018-01-14T02:46:05.325Z,984.62
2018-01-14T02:47:05.014Z,984.65
2018-01-14T02:48:10.660Z,984.78
2018-01-14T02:49:05.945Z,984.60
2018-01-14T02:50:05.975Z,984.65
2018-01-14T02:51:05.280Z,984.48
2018-01-14T02:52:05.754Z,984.54
2018-01-14T02:53:05.228Z,984.65
2018-01-14T02:54:05.968Z,984.57
2018-01-14T02:55:05.554Z,984.57
2018-01-14T02:56:10.532Z,984.62
2018-01-14T02:57:05.758Z,984.65
2018-01-14T02:58:04.970Z,984.54
2018-01-14T02:59:10.838Z,984.54
2018-01-14T03:00:05.801Z,984.65
2018-01-14T03:01:05.395Z,984.46
2018-01-14T03:02:05.804Z,984.57
2018-01-14T03:03:05.616Z,984.59
2018-01-14T03:04:05.791Z,984.37
2018-01-14T03:05:05.513Z,984.46
2018-01-14T03:06:05.449Z,984.54
2018-01-14T03:07:05.110Z,984.48
2018-01-14T03:08:04.902Z,984.48
2018-01-14T03:09:05.775Z,984.46
2018-01-14T03:10:05.057Z,984.51
2018-01-14T03:11:05.583Z,984.48
2018-01-14T03:12:05.344Z,984.45
2018-01-14T03:13:05.423Z,984.40
2018-01-14T03:14:04.984Z,984.45
2018-01-14T03:15:05.708Z,984.51
2018-01-14T03:16:05.859Z,984.43
2018-01-14T03:17:05.957Z,984.48
2018-01-14T03:18:05.496Z,984.37
2018-01-14T03:19:05.038Z,984.40
2018-01-14T03:20:05.976Z,984.56
2018-01-14T03:21:05.497Z,984.45
2018-01-14T03:22:05.287Z,984.37
2018-01-14T03:23:05.638Z,984.56
2018-01-14T03:24:05.200Z,984.45
2018-01-14T03:25:05.522Z,984.56
2018-01-14T03:26:05.350Z,984.48
2018-01-14T03:27:06.056Z,984.59
2018-01-14T03:28:05.155Z,984.56
2018-01-14T03:29:05.273Z,984.54
2018-01-14T03:30:05.170Z,984.54
2018-01-14T03:31:05.632Z,984.45
2018-01-14T03:32:05.047Z,984.45
2018-01-14T03:33:05.387Z,984.45
2018-01-14T03:34:05.022Z,984.40
2018-01-14T03:35:05.778Z,984.43
2018-01-14T03:36:05.051Z,984.29
2018-01-14T03:37:05.999Z,984.34
2018-01-14T03:38:05.987Z,984.40
2018-01-14T03:39:05.315Z,984.48
2018-01-14T03:40:05.306Z,984.34
2018-01-14T03:41:05.698Z,984.40
2018-01-14T03:42:05.191Z,984.37
2018-01-14T03:43:05.798Z,984.54
2018-01-14T03:44:05.583Z,984.43
2018-01-14T03:45:05.128Z,984.51
2018-01-14T03:46:05.222Z,984.23
2018-01-14T03:47:05.432Z,984.40
2018-01-14T03:48:05.690Z,984.37
2018-01-14T03:49:05.428Z,984.40
2018-01-14T03:50:05.298Z,984.56
2018-01-14T03:51:05.916Z,984.59
2018-01-14T03:52:04.991Z,984.34
2018-01-14T03:53:05.562Z,984.51
2018-01-14T03:54:05.337Z,984.59
2018-01-14T03:55:10.959Z,984.51
2018-01-14T03:56:05.139Z,984.51
2018-01-14T03:57:05.048Z,984.59
2018-01-14T03:58:05.863Z,984.43
2018-01-14T03:59:05.616Z,984.56
2018-01-14T04:00:05.323Z,984.45
2018-01-14T04:01:05.901Z,984.45
2018-01-14T04:02:05.860Z,984.56
2018-01-14T04:03:05.126Z,984.51
2018-01-14T04:04:05.954Z,984.56
2018-01-14T04:05:05.250Z,984.37
2018-01-14T04:06:05.651Z,984.62
2018-01-14T04:07:05.266Z,984.48
2018-01-14T04:08:05.968Z,984.42
2018-01-14T04:09:05.763Z,984.42
2018-01-14T04:10:05.465Z,984.56
2018-01-14T04:11:04.913Z,984.56
2018-01-14T04:12:05.467Z,984.65
2018-01-14T04:13:05.041Z,984.42
2018-01-14T04:14:05.941Z,984.56
2018-01-14T04:15:05.343Z,984.48
2018-01-14T04:16:05.383Z,984.42
2018-01-14T04:17:05.347Z,984.53
2018-01-14T04:18:05.973Z,984.51
2018-01-14T04:19:05.806Z,984.56
2018-01-14T04:20:05.829Z,984.37
2018-01-14T04:21:05.302Z,984.37
2018-01-14T04:22:05.720Z,984.51
2018-01-14T04:23:05.883Z,984.28
2018-01-14T04:24:05.281Z,984.34
2018-01-14T04:25:05.424Z,984.23
2018-01-14T04:26:05.481Z,984.31
2018-01-14T04:27:05.428Z,984.37
2018-01-14T04:28:04.948Z,984.31
2018-01-14T04:29:04.946Z,984.31
2018-01-14T04:30:05.898Z,984.45
2018-01-14T04:31:05.453Z,984.31
2018-01-14T04:32:05.421Z,984.40
2018-01-14T04:33:05.236Z,984.40
2018-01-14T04:34:05.855Z,984.37
2018-01-14T04:35:05.390Z,984.28
2018-01-14T04:36:05.024Z,984.23
2018-01-14T04:37:05.646Z,984.31
2018-01-14T04:38:05.258Z,984.17
2018-01-14T04:39:05.835Z,984.31
2018-01-14T04:40:05.102Z,984.12
2018-01-14T04:41:05.497Z,984.42
2018-01-14T04:42:05.387Z,984.42
2018-01-14T04:43:05.311Z,984.23
2018-01-14T04:44:05.687Z,984.28
2018-01-14T04:45:05.081Z,984.37
2018-01-14T04:46:05.120Z,984.17
2018-01-14T04:47:05.731Z,984.25
2018-01-14T04:48:05.310Z,984.31
2018-01-14T04:49:05.003Z,984.25
2018-01-14T04:50:05.004Z,984.31
2018-01-14T04:51:05.037Z,984.25
2018-01-14T04:52:05.982Z,984.28
2018-01-14T04:53:05.897Z,984.20
2018-01-14T04:54:05.502Z,984.28
2018-01-14T04:55:05.590Z,984.34
2018-01-14T04:56:05.045Z,984.37
2018-01-14T04:57:05.122Z,984.31
2018-01-14T04:58:05.829Z,984.12
2018-01-14T04:59:05.390Z,984.28
2018-01-14T05:00:05.188Z,984.11
2018-01-14T05:01:05.819Z,984.17
2018-01-14T05:02:05.797Z,984.23
2018-01-14T05:03:05.711Z,984.09
2018-01-14T05:04:05.165Z,984.28
2018-01-14T05:05:04.941Z,984.28
2018-01-14T05:06:05.677Z,984.23
2018-01-14T05:07:05.770Z,984.34
2018-01-14T05:08:05.984Z,984.34
2018-01-14T05:09:05.699Z,984.31
2018-01-14T05:10:05.761Z,984.31
2018-01-14T05:11:05.341Z,984.25
2018-01-14T05:12:05.207Z,984.42
2018-01-14T05:13:05.632Z,984.31
2018-01-14T05:14:05.670Z,984.28
2018-01-14T05:15:05.232Z,984.25
2018-01-14T05:16:05.274Z,984.36
2018-01-14T05:17:05.257Z,984.34
2018-01-14T05:18:05.066Z,984.34
2018-01-14T05:19:05.758Z,984.25
2018-01-14T05:20:05.727Z,984.36
2018-01-14T05:21:05.441Z,984.25
2018-01-14T05:22:05.531Z,984.56
2018-01-14T05:23:05.404Z,984.36
2018-01-14T05:24:05.139Z,984.31
2018-01-14T05:25:05.392Z,984.25
2018-01-14T05:26:05.187Z,984.36
2018-01-14T05:27:10.948Z,984.25
2018-01-14T05:28:05.951Z,984.39
2018-01-14T05:29:05.680Z,984.56
2018-01-14T05:30:05.485Z,984.39
2018-01-14T05:31:05.102Z,984.20
2018-01-14T05:32:05.154Z,984.42
2018-01-14T05:33:05.103Z,984.39
2018-01-14T05:34:05.701Z,984.45
2018-01-14T05:35:05.908Z,984.22
2018-01-14T05:36:05.975Z,984.33
2018-01-14T05:37:05.226Z,984.45
2018-01-14T05:38:05.345Z,984.36
2018-01-14T05:39:05.916Z,984.33
2018-01-14T05:40:05.502Z,984.31
2018-01-14T05:41:05.522Z,984.31
2018-01-14T05:42:05.102Z,984.28
2018-01-14T05:43:05.317Z,984.33
2018-01-14T05:44:05.413Z,984.22
2018-01-14T05:45:05.225Z,984.33
2018-01-14T05:46:06.148Z,984.42
2018-01-14T05:47:05.234Z,984.22
2018-01-14T05:48:05.549Z,984.39
2018-01-14T05:49:05.572Z,984.39
2018-01-14T05:50:05.534Z,984.45
2018-01-14T05:51:05.908Z,984.25
2018-01-14T05:52:05.769Z,984.47
2018-01-14T05:53:05.615Z,984.36
2018-01-14T05:54:05.214Z,984.42
2018-01-14T05:55:05.352Z,984.50
2018-01-14T05:56:05.182Z,984.50
2018-01-14T05:57:10.287Z,984.42
2018-01-14T05:58:05.782Z,984.47
2018-01-14T05:59:05.153Z,984.47
2018-01-14T06:00:05.200Z,984.50
2018-01-14T06:01:05.225Z,984.44
2018-01-14T06:02:05.242Z,984.33
2018-01-14T06:03:05.236Z,984.39
2018-01-14T06:04:05.119Z,984.42
2018-01-14T06:05:05.014Z,984.47
2018-01-14T06:06:05.467Z,984.56
2018-01-14T06:07:05.885Z,984.42
2018-01-14T06:08:05.736Z,984.44
2018-01-14T06:09:05.407Z,984.56
2018-01-14T06:10:05.743Z,984.61
2018-01-14T06:11:10.737Z,984.50
2018-01-14T06:12:05.355Z,984.50
2018-01-14T06:13:05.635Z,984.58
2018-01-14T06:14:05.334Z,984.53
2018-01-14T06:15:05.235Z,984.56
2018-01-14T06:16:05.008Z,984.61
2018-01-14T06:17:05.569Z,984.61
2018-01-14T06:18:05.592Z,984.64
2018-01-14T06:19:05.037Z,984.64
2018-01-14T06:20:05.736Z,984.58
2018-01-14T06:21:05.941Z,984.55
2018-01-14T06:22:05.526Z,984.50
2018-01-14T06:23:05.643Z,984.58
2018-01-14T06:24:05.258Z,984.44
2018-01-14T06:25:05.275Z,984.44
2018-01-14T06:26:05.433Z,984.53
2018-01-14T06:27:05.001Z,984.53
2018-01-14T06:28:05.653Z,984.56
2018-01-14T06:29:05.270Z,984.58
2018-01-14T06:30:05.691Z,984.44
2018-01-14T06:31:05.065Z,984.58
2018-01-14T06:32:10.028Z,984.56
2018-01-14T06:33:05.073Z,984.58
2018-01-14T06:34:05.636Z,984.61
2018-01-14T06:35:05.085Z,984.53
2018-01-14T06:36:05.046Z,984.47
2018-01-14T06:37:05.775Z,984.61
2018-01-14T06:38:10.675Z,984.56
2018-01-14T06:39:05.879Z,984.58
2018-01-14T06:40:06.025Z,984.58
2018-01-14T06:41:05.604Z,984.56
2018-01-14T06:42:05.171Z,984.69
2018-01-14T06:43:05.382Z,984.64
2018-01-14T06:44:05.214Z,984.64
2018-01-14T06:45:05.160Z,984.69
2018-01-14T06:46:05.280Z,984.72
2018-01-14T06:47:05.797Z,984.69
2018-01-14T06:48:05.596Z,984.69
2018-01-14T06:49:05.905Z,984.80
2018-01-14T06:50:05.635Z,984.75
2018-01-14T06:51:05.542Z,984.61
2018-01-14T06:52:05.081Z,984.64
2018-01-14T06:53:05.784Z,984.67
2018-01-14T06:54:05.691Z,984.56
2018-01-14T06:55:05.541Z,984.61
2018-01-14T06:56:04.935Z,984.64
2018-01-14T06:57:05.119Z,984.69
2018-01-14T06:58:04.928Z,984.58
2018-01-14T06:59:05.501Z,984.64
2018-01-14T07:00:05.752Z,984.55
2018-01-14T07:01:05.360Z,984.69
2018-01-14T07:02:05.925Z,984.58
2018-01-14T07:03:05.279Z,984.61
2018-01-14T07:04:05.207Z,984.64
2018-01-14T07:05:05.645Z,984.67
2018-01-14T07:06:05.287Z,984.58
2018-01-14T07:07:05.154Z,984.50
2018-01-14T07:08:10.938Z,984.61
2018-01-14T07:09:05.552Z,984.69
2018-01-14T07:10:05.279Z,984.55
2018-01-14T07:11:05.692Z,984.47
2018-01-14T07:12:05.440Z,984.55
2018-01-14T07:13:05.179Z,984.58
2018-01-14T07:14:05.983Z,984.55
2018-01-14T07:15:05.818Z,984.55
2018-01-14T07:16:05.443Z,984.64
2018-01-14T07:17:05.442Z,984.55
2018-01-14T07:18:05.303Z,984.58
2018-01-14T07:19:05.803Z,984.69
2018-01-14T07:20:05.629Z,984.66
2018-01-14T07:21:05.055Z,984.75
2018-01-14T07:22:05.462Z,984.64
2018-01-14T07:23:10.556Z,984.72
2018-01-14T07:24:05.809Z,984.72
2018-01-14T07:25:05.905Z,984.66
2018-01-14T07:26:05.823Z,984.66
2018-01-14T07:27:05.711Z,984.72
2018-01-14T07:28:05.142Z,984.72
2018-01-14T07:29:05.775Z,984.72
2018-01-14T07:30:05.643Z,984.69
2018-01-14T07:31:05.865Z,984.77
2018-01-14T07:32:05.616Z,984.77
2018-01-14T07:33:05.059Z,984.64
2018-01-14T07:34:05.857Z,984.75
2018-01-14T07:35:05.988Z,984.72
2018-01-14T07:36:05.640Z,984.79
2018-01-14T07:37:05.623Z,984.82
2018-01-14T07:38:10.190Z,984.72
2018-01-14T07:39:05.194Z,984.69
2018-01-14T07:40:05.569Z,984.82
2018-01-14T07:41:05.366Z,984.79
2018-01-14T07:42:05.112Z,984.88
2018-01-14T07:43:05.802Z,985.01
2018-01-14T07:44:05.283Z,984.93
2018-01-14T07:45:06.134Z,984.82
2018-01-14T07:46:05.696Z,984.85
2018-01-14T07:47:05.666Z,984.79
2018-01-14T07:48:05.175Z,984.90
2018-01-14T07:49:05.406Z,984.79
2018-01-14T07:50:05.394Z,984.93
2018-01-14T07:51:05.183Z,984.87
2018-01-14T07:52:05.432Z,984.79
2018-01-14T07:53:05.191Z,984.85
2018-01-14T07:54:05.035Z,984.77
2018-01-14T07:55:06.497Z,984.72
2018-01-14T07:56:05.157Z,984.93
2018-01-14T07:57:05.430Z,984.74
2018-01-14T07:58:05.951Z,984.72
2018-01-14T07:59:05.833Z,984.77
2018-01-14T08:00:05.682Z,984.72
2018-01-14T08:01:05.711Z,984.87
2018-01-14T08:02:05.464Z,984.82
2018-01-14T08:03:05.417Z,984.82
2018-01-14T08:04:05.152Z,984.74
2018-01-14T08:05:04.973Z,984.85
2018-01-14T08:06:05.341Z,984.74
2018-01-14T08:07:05.369Z,984.72
2018-01-14T08:08:05.038Z,984.72
2018-01-14T08:09:05.994Z,984.74
2018-01-14T08:10:05.957Z,984.77
2018-01-14T08:11:04.928Z,984.69
2018-01-14T08:12:05.609Z,984.77
2018-01-14T08:13:05.301Z,984.71
2018-01-14T08:14:05.001Z,984.74
2018-01-14T08:15:05.376Z,984.55
2018-01-14T08:16:05.031Z,984.69
2018-01-14T08:17:05.946Z,984.71
2018-01-14T08:18:05.708Z,984.77
2018-01-14T08:19:05.389Z,984.71
2018-01-14T08:20:05.916Z,984.87
2018-01-14T08:21:05.239Z,984.98
2018-01-14T08:22:05.873Z,984.81
2018-01-14T08:23:06.148Z,984.81
2018-01-14T08:24:05.371Z,984.84
2018-01-14T08:25:10.317Z,984.78
2018-01-14T08:26:05.308Z,984.87
2018-01-14T08:27:05.761Z,984.77
2018-01-14T08:28:05.037Z,984.68
2018-01-14T08:29:05.778Z,984.77
2018-01-14T08:30:05.696Z,984.78
2018-01-14T08:31:05.510Z,984.65
2018-01-14T08:32:05.914Z,984.84
2018-01-14T08:33:05.258Z,984.77
2018-01-14T08:34:05.756Z,984.87
2018-01-14T08:35:05.095Z,984.81
2018-01-14T08:36:05.160Z,984.78
2018-01-14T08:37:05.658Z,984.78
2018-01-14T08:38:05.860Z,984.76
2018-01-14T08:39:05.081Z,984.89
2018-01-14T08:40:05.650Z,984.78
2018-01-14T08:41:05.050Z,984.89
2018-01-14T08:42:05.656Z,984.76
2018-01-14T08:43:05.682Z,984.73
2018-01-14T08:44:05.421Z,984.89
2018-01-14T08:45:05.794Z,984.86
2018-01-14T08:46:05.900Z,984.80
2018-01-14T08:47:05.718Z,984.83
2018-01-14T08:48:05.541Z,984.80
2018-01-14T08:49:05.944Z,984.67
2018-01-14T08:50:05.055Z,984.83
2018-01-14T08:51:05.503Z,984.89
2018-01-14T08:52:05.496Z,984.80
2018-01-14T08:53:05.631Z,984.77
2018-01-14T08:54:05.539Z,984.91
2018-01-14T08:55:05.060Z,984.80
2018-01-14T08:56:05.391Z,984.73
2018-01-14T08:57:06.687Z,984.75
2018-01-14T08:58:05.378Z,984.73
2018-01-14T08:59:05.666Z,984.70
2018-01-14T09:00:05.289Z,984.80
2018-01-14T09:01:05.225Z,984.67
2018-01-14T09:02:05.547Z,984.77
2018-01-14T09:03:05.471Z,984.72
2018-01-14T09:04:05.846Z,984.67
2018-01-14T09:05:05.761Z,984.82
2018-01-14T09:06:05.611Z,984.79
2018-01-14T09:07:05.981Z,984.85
2018-01-14T09:08:06.003Z,984.96
2018-01-14T09:09:05.149Z,984.82
2018-01-14T09:10:04.929Z,984.88
2018-01-14T09:11:06.040Z,984.90
2018-01-14T09:12:05.855Z,984.96
2018-01-14T09:13:05.011Z,984.79
2018-01-14T09:14:05.662Z,984.98
2018-01-14T09:15:05.856Z,984.82
2018-01-14T09:16:05.920Z,984.82
2018-01-14T09:17:05.808Z,984.79
2018-01-14T09:18:05.676Z,984.82
2018-01-14T09:19:05.893Z,984.93
2018-01-14T09:20:05.914Z,984.84
2018-01-14T09:21:05.874Z,984.87
2018-01-14T09:22:05.643Z,984.77
2018-01-14T09:23:05.332Z,984.90
2018-01-14T09:24:05.164Z,984.84
2018-01-14T09:25:05.160Z,984.87
2018-01-14T09:26:05.654Z,984.81
2018-01-14T09:27:05.046Z,984.81
2018-01-14T09:28:05.805Z,984.78
2018-01-14T09:29:05.347Z,984.87
2018-01-14T09:30:05.211Z,984.78
2018-01-14T09:31:05.109Z,984.74
2018-01-14T09:32:05.179Z,984.84
2018-01-14T09:33:05.047Z,984.78
2018-01-14T09:34:04.916Z,984.84
2018-01-14T09:35:05.481Z,984.81
2018-01-14T09:36:04.954Z,984.76
2018-01-14T09:37:05.788Z,984.86
2018-01-14T09:38:04.891Z,984.86
2018-01-14T09:39:05.481Z,984.83
2018-01-14T09:40:05.595Z,984.95
2018-01-14T09:41:05.928Z,984.92
2018-01-14T09:42:05.795Z,985.00
2018-01-14T09:43:05.410Z,985.00
2018-01-14T09:44:06.025Z,984.83
2018-01-14T09:45:05.604Z,984.97
2018-01-14T09:46:04.997Z,984.97
2018-01-14T09:47:05.552Z,984.83
2018-01-14T09:48:05.213Z,984.83
2018-01-14T09:49:05.332Z,984.80
2018-01-14T09:50:05.639Z,984.94
2018-01-14T09:51:05.238Z,984.83
2018-01-14T09:52:05.786Z,984.83
2018-01-14T09:53:06.005Z,984.91
2018-01-14T09:54:05.140Z,985.00
2018-01-14T09:55:05.102Z,984.97
2018-01-14T09:56:05.882Z,984.97
2018-01-14T09:57:05.793Z,984.91
2018-01-14T09:58:05.565Z,984.77
2018-01-14T09:59:05.578Z,984.83
2018-01-14T10:00:05.800Z,984.80
2018-01-14T10:01:05.189Z,984.83
2018-01-14T10:02:06.013Z,984.80
2018-01-14T10:03:06.081Z,984.83
2018-01-14T10:04:06.179Z,984.80
2018-01-14T10:05:05.272Z,984.88
2018-01-14T10:06:05.127Z,984.86
2018-01-14T10:07:05.067Z,984.83
2018-01-14T10:08:04.975Z,984.70
2018-01-14T10:09:05.322Z,984.80
2018-01-14T10:10:05.387Z,984.75
2018-01-14T10:11:06.006Z,984.88
2018-01-14T10:12:04.978Z,984.80
2018-01-14T10:13:05.430Z,984.72
2018-01-14T10:14:10.155Z,984.75
2018-01-14T10:15:05.106Z,984.77
2018-01-14T10:16:05.770Z,984.72
2018-01-14T10:17:05.544Z,984.85
2018-01-14T10:18:05.673Z,984.72
2018-01-14T10:19:05.725Z,984.70
2018-01-14T10:20:05.465Z,984.75
2018-01-14T10:21:05.302Z,984.77
2018-01-14T10:22:05.100Z,984.77
2018-01-14T10:23:05.673Z,984.80
2018-01-14T10:24:05.404Z,984.80
2018-01-14T10:25:05.540Z,984.88
2018-01-14T10:26:05.801Z,984.85
2018-01-14T10:27:04.995Z,984.75
2018-01-14T10:28:05.731Z,984.82
2018-01-14T10:29:05.175Z,984.72
2018-01-14T10:30:05.936Z,984.79
2018-01-14T10:31:05.563Z,984.67
2018-01-14T10:32:05.604Z,984.77
2018-01-14T10:33:05.787Z,984.85
2018-01-14T10:34:05.222Z,984.88
2018-01-14T10:35:04.985Z,984.82
2018-01-14T10:36:04.938Z,984.69
2018-01-14T10:37:05.754Z,984.90
2018-01-14T10:38:05.781Z,984.66
2018-01-14T10:39:05.356Z,984.75
2018-01-14T10:40:05.391Z,984.72
2018-01-14T10:41:05.991Z,984.72
2018-01-14T10:42:05.660Z,984.69
2018-01-14T10:43:05.450Z,984.69
2018-01-14T10:44:05.837Z,984.84
2018-01-14T10:45:05.709Z,984.63
2018-01-14T10:46:05.754Z,984.79
2018-01-14T10:47:05.120Z,984.82
2018-01-14T10:48:10.848Z,984.69
2018-01-14T10:49:05.894Z,984.71
2018-01-14T10:50:05.599Z,984.74
2018-01-14T10:51:05.311Z,984.63
2018-01-14T10:52:05.433Z,984.81
2018-01-14T10:53:05.107Z,984.68
2018-01-14T10:54:05.518Z,984.60
2018-01-14T10:55:05.313Z,984.68
2018-01-14T10:56:05.468Z,984.77
2018-01-14T10:57:05.245Z,984.63
2018-01-14T10:58:05.958Z,984.63
2018-01-14T10:59:05.892Z,984.74
2018-01-14T11:00:05.660Z,984.65
2018-01-14T11:01:05.696Z,984.77
2018-01-14T11:02:10.406Z,984.71
2018-01-14T11:03:05.377Z,984.68
2018-01-14T11:04:05.079Z,984.51
2018-01-14T11:05:05.202Z,984.78
2018-01-14T11:06:05.061Z,984.65
2018-01-14T11:07:05.933Z,984.62
2018-01-14T11:08:05.535Z,984.68
2018-01-14T11:09:05.513Z,984.68
2018-01-14T11:10:05.313Z,984.62
2018-01-14T11:11:05.363Z,984.76
2018-01-14T11:12:05.483Z,984.62
2018-01-14T11:13:05.210Z,984.51
2018-01-14T11:14:05.842Z,984.54
2018-01-14T11:15:05.563Z,984.70
2018-01-14T11:16:05.230Z,984.51
2018-01-14T11:17:05.852Z,984.62
2018-01-14T11:18:05.483Z,984.59
2018-01-14T11:19:05.851Z,984.59
2018-01-14T11:20:05.367Z,984.53
2018-01-14T11:21:05.884Z,984.48
2018-01-14T11:22:05.216Z,984.56
2018-01-14T11:23:04.958Z,984.47
2018-01-14T11:24:05.170Z,984.39
2018-01-14T11:25:05.931Z,984.67
2018-01-14T11:26:05.489Z,984.61
2018-01-14T11:27:05.942Z,984.56
2018-01-14T11:28:05.779Z,984.56
2018-01-14T11:29:05.549Z,984.53
2018-01-14T11:30:05.421Z,984.61
2018-01-14T11:31:04.982Z,984.58
2018-01-14T11:32:05.966Z,984.55
2018-01-14T11:33:05.204Z,984.50
2018-01-14T11:34:05.926Z,984.53
2018-01-14T11:35:05.645Z,984.66
2018-01-14T11:36:05.150Z,984.52
2018-01-14T11:37:05.924Z,984.41
2018-01-14T11:38:05.395Z,984.44
2018-01-14T11:39:05.392Z,984.46
2018-01-14T11:40:05.023Z,984.38
2018-01-14T11:41:05.507Z,984.38
2018-01-14T11:42:05.365Z,984.43
2018-01-14T11:43:05.227Z,984.49
2018-01-14T11:44:05.609Z,984.40
2018-01-14T11:45:05.464Z,984.37
2018-01-14T11:46:05.808Z,984.51
2018-01-14T11:47:05.656Z,984.43
2018-01-14T11:48:05.874Z,984.51
2018-01-14T11:49:05.722Z,984.45
2018-01-14T11:50:05.722Z,984.45
2018-01-14T11:51:05.734Z,984.45
2018-01-14T11:52:05.432Z,984.48
2018-01-14T11:53:05.594Z,984.42
2018-01-14T11:54:05.309Z,984.37
2018-01-14T11:55:05.420Z,984.39
2018-01-14T11:56:05.478Z,984.42
2018-01-14T11:57:05.509Z,984.45
2018-01-14T11:58:05.548Z,984.59
2018-01-14T11:59:05.605Z,984.45
2018-01-14T12:00:10.684Z,984.33
2018-01-14T12:01:05.634Z,984.39
2018-01-14T12:02:05.423Z,984.45
2018-01-14T12:03:05.484Z,984.19
2018-01-14T12:04:05.283Z,984.25
2018-01-14T12:05:05.702Z,984.25
2018-01-14T12:06:05.366Z,984.36
2018-01-14T12:07:05.470Z,984.25
2018-01-14T12:08:05.634Z,984.25
2018-01-14T12:09:05.558Z,984.20
2018-01-14T12:10:05.516Z,984.25
2018-01-14T12:11:05.116Z,984.25
2018-01-14T12:12:05.652Z,984.14
2018-01-14T12:13:05.122Z,984.20
2018-01-14T12:14:05.810Z,984.14
2018-01-14T12:15:05.827Z,984.09
2018-01-14T12:16:05.624Z,984.23
2018-01-14T12:17:05.570Z,984.09
2018-01-14T12:18:05.371Z,984.26
2018-01-14T12:19:04.973Z,984.15
2018-01-14T12:20:05.963Z,984.29
2018-01-14T12:21:05.647Z,984.07
2018-01-14T12:22:10.398Z,984.26
2018-01-14T12:23:05.553Z,984.15
2018-01-14T12:24:05.317Z,984.23
2018-01-14T12:25:05.393Z,984.23
2018-01-14T12:26:05.762Z,984.24
2018-01-14T12:27:05.815Z,984.15
2018-01-14T12:28:05.822Z,984.15